Time;durP1;ratioP1;P1;durP2;ratioP2;P2;SDS_P1;SDS_P2;PMS_P1;PMS_P2;Temp;Humidity;BMP_temperature;BMP_pressure;BME280_temperature;BME280_humidity;BME280_pressure;Samples;Min_cycle;Max_cycle;Signal;HPM_P1;HPM_P2
2021/03/28 00:01:14;;;;;;;24.15;3.60;;;;;;;6.93;81.18;102536.56;4987793;28;20038;-70
2021/03/28 00:03:55;;;;;;;20.90;4.45;;;;;;;6.91;81.30;102535.78;4982883;28;20453;-70
2021/03/28 00:06:49;;;;;;;21.15;4.28;;;;;;;6.92;81.95;102532.19;4984501;28;20026;-70
2021/03/28 00:09:23;;;;;;;22.05;3.70;;;;;;;6.91;81.72;102533.13;4990744;28;20108;-70
2021/03/28 00:12:22;;;;;;;21.33;4.22;;;;;;;6.96;81.74;102544.34;4983150;28;20524;-70
2021/03/28 00:15:08;;;;;;;25.10;3.67;;;;;;;6.98;81.71;102538.94;4985521;28;20049;-70
2021/03/28 00:17:48;;;;;;;20.08;3.28;;;;;;;6.98;81.89;102546.91;4980394;28;20626;-70
2021/03/28 00:20:16;;;;;;;23.25;3.55;;;;;;;7.01;81.38;102542.25;4985311;28;20030;-70
2021/03/28 00:22:42;;;;;;;;;;;;;;;6.95;81.84;102544.41;4982860;28;20030;-70
2021/03/28 00:25:16;;;;;;;17.10;3.75;;;;;;;6.92;81.78;102540.16;4990127;28;19948;-70
2021/03/28 00:27:53;;;;;;;16.33;3.28;;;;;;;6.89;81.98;102541.19;4986978;28;20026;-70
2021/03/28 00:30:32;;;;;;;23.00;4.10;;;;;;;6.86;82.45;102532.53;4984747;28;20038;-70
2021/03/28 00:33:06;;;;;;;22.00;4.20;;;;;;;6.85;82.67;102530.84;4985817;28;20078;-70
2021/03/28 00:35:52;;;;;;;21.58;4.00;;;;;;;6.79;82.33;102539.97;4989877;28;20567;-70
2021/03/28 00:38:30;;;;;;;18.50;3.80;;;;;;;6.54;82.75;102495.41;4990175;28;20022;-70
2021/03/28 00:41:14;;;;;;;;;;;;;;;6.72;83.27;102534.16;4985960;28;20032;-71
2021/03/28 00:43:45;;;;;;;19.23;3.67;;;;;;;6.75;82.71;102533.16;4992967;28;19961;-70
2021/03/28 00:46:23;;;;;;;18.13;3.58;;;;;;;6.70;83.06;102532.53;4984903;28;20025;-70
2021/03/28 00:48:54;;;;;;;24.00;5.18;;;;;;;6.68;83.64;102526.47;4985978;28;20113;-70
2021/03/28 00:51:24;;;;;;;21.90;4.30;;;;;;;6.35;84.12;102480.50;4992631;28;20026;-70
2021/03/28 00:54:00;;;;;;;27.83;4.80;;;;;;;6.55;84.37;102527.16;4987966;28;20081;-70
2021/03/28 00:56:48;;;;;;;20.02;4.30;;;;;;;6.58;85.06;102528.78;4980017;28;20036;-70
2021/03/28 00:59:24;;;;;;;20.90;3.75;;;;;;;6.55;85.17;102537.75;4995724;28;20068;-70
2021/03/28 01:02:05;;;;;;;20.25;4.22;;;;;;;6.51;85.02;102528.28;4987424;28;20053;-70
2021/03/28 01:05:08;;;;;;;15.85;3.83;;;;;;;6.51;84.83;102533.59;4981289;28;20030;-70
2021/03/28 01:07:41;;;;;;;26.50;5.22;;;;;;;6.48;85.04;102523.13;4986881;28;20565;-71
2021/03/28 01:10:44;;;;;;;25.85;4.78;;;;;;;6.48;84.98;102520.47;4991290;28;20060;-70
2021/03/28 01:13:46;;;;;;;23.85;3.80;;;;;;;6.42;85.54;102531.41;4987285;28;20052;-70
2021/03/28 01:16:18;;;;;;;23.60;4.05;;;;;;;6.36;86.53;102527.31;4984022;28;20172;-71
2021/03/28 01:19:15;;;;;;;31.48;4.05;;;;;;;6.33;86.40;102519.53;4988577;28;20037;-71
2021/03/28 01:21:53;;;;;;;24.20;3.88;;;;;;;6.30;86.41;102522.34;4980585;28;20092;-69
2021/03/28 01:24:30;;;;;;;19.93;3.70;;;;;;;6.33;85.98;102508.06;4986179;28;20040;-70
2021/03/28 01:27:25;;;;;;;22.52;4.00;;;;;;;6.33;85.81;102495.66;4984274;28;20034;-69
2021/03/28 01:29:54;;;;;;;22.80;4.35;;;;;;;6.28;86.57;102498.56;4990065;28;20022;-70
2021/03/28 01:32:38;;;;;;;18.00;4.03;;;;;;;6.27;85.97;102503.97;4987795;28;20077;-70
2021/03/28 01:35:09;;;;;;;33.10;4.20;;;;;;;6.27;86.03;102491.53;4990148;28;20065;-70
2021/03/28 01:38:11;;;;;;;19.20;4.32;;;;;;;6.22;85.90;102493.63;4986866;28;20109;-69
2021/03/28 01:41:04;;;;;;;24.40;3.90;;;;;;;6.27;86.11;102496.00;4983927;28;20110;-70
2021/03/28 01:43:49;;;;;;;22.50;3.60;;;;;;;6.32;85.53;102493.94;4981072;28;20031;-69
2021/03/28 01:46:14;;;;;;;19.73;3.97;;;;;;;6.32;86.13;102490.44;4982602;28;20056;-71
2021/03/28 01:48:41;;;;;;;26.23;4.18;;;;;;;6.31;85.60;102489.56;5005961;28;20030;-71
2021/03/28 01:51:52;;;;;;;17.30;3.70;;;;;;;6.34;86.22;102492.06;4985338;28;20068;-70
2021/03/28 01:54:43;;;;;;;21.38;4.13;;;;;;;6.31;85.76;102480.78;4996786;28;20128;-70
2021/03/28 01:57:39;;;;;;;23.67;4.07;;;;;;;6.30;86.39;102481.72;4985932;28;20073;-70
2021/03/28 02:00:23;;;;;;;23.73;4.18;;;;;;;6.31;86.01;102486.09;4986248;28;20022;-71
2021/03/28 02:03:05;;;;;;;25.45;4.63;;;;;;;6.30;86.23;102484.38;4986829;28;20489;-70
2021/03/28 02:05:33;;;;;;;18.75;4.03;;;;;;;6.33;85.99;102486.84;4993395;28;20117;-70
2021/03/28 02:08:24;;;;;;;20.83;5.00;;;;;;;6.34;86.38;102488.56;4994128;28;20465;-72
2021/03/28 02:10:55;;;;;;;24.83;4.55;;;;;;;6.33;85.59;102492.16;4983928;28;20109;-69
2021/03/28 02:13:59;;;;;;;25.25;4.07;;;;;;;6.30;86.23;102482.59;4984416;28;20065;-70
2021/03/28 02:16:30;;;;;;;22.88;4.65;;;;;;;6.29;86.27;102472.91;4987644;28;20500;-70
2021/03/28 02:19:13;;;;;;;23.50;4.53;;;;;;;6.25;87.12;102481.97;4990481;28;20468;-71
2021/03/28 02:21:47;;;;;;;19.55;4.75;;;;;;;6.20;86.74;102490.19;4989083;28;20046;-70
2021/03/28 02:24:25;;;;;;;22.90;4.55;;;;;;;6.17;86.72;102473.59;4985719;28;20038;-70
2021/03/28 02:27:02;;;;;;;27.10;4.78;;;;;;;5.99;86.81;102460.38;4989530;28;20280;-70
2021/03/28 02:29:59;;;;;;;26.17;5.03;;;;;;;6.15;86.44;102478.97;4995053;28;20026;-70
2021/03/28 02:32:57;;;;;;;27.60;5.25;;;;;;;6.09;86.72;102472.22;4988346;28;20069;-70
2021/03/28 02:35:46;;;;;;;24.85;4.28;;;;;;;6.01;86.71;102477.09;4981613;28;20119;-70
2021/03/28 02:38:30;;;;;;;21.52;5.05;;;;;;;5.60;86.86;102403.31;4988200;28;20444;-70
2021/03/28 02:41:08;;;;;;;18.05;4.70;;;;;;;6.01;87.65;102478.84;4985415;28;20105;-71
2021/03/28 02:43:40;;;;;;;;;;;;;;;6.01;87.75;102471.78;4991956;28;20042;-71
2021/03/28 02:46:27;;;;;;;26.75;5.70;;;;;;;5.95;87.56;102470.28;4988146;28;20210;-70
2021/03/28 02:49:01;;;;;;;21.85;7.10;;;;;;;5.97;87.13;102473.69;4987314;28;20084;-70
2021/03/28 02:51:55;;;;;;;26.48;8.07;;;;;;;5.98;87.53;102466.59;4995105;28;20025;-69
2021/03/28 02:54:57;;;;;;;22.55;5.82;;;;;;;5.93;87.09;102476.59;4983116;28;20054;-70
2021/03/28 02:57:32;;;;;;;22.98;6.15;;;;;;;5.85;87.38;102469.03;4989916;28;20493;-70
2021/03/28 03:00:14;;;;;;;25.10;6.25;;;;;;;5.68;88.04;102456.72;4987836;28;20560;-70
2021/03/28 03:03:02;;;;;;;24.20;6.13;;;;;;;5.73;87.68;102470.56;4990948;28;23220;-70
2021/03/28 03:05:37;;;;;;;17.67;6.00;;;;;;;5.76;87.45;102464.25;4984169;28;20081;-70
2021/03/28 03:08:21;;;;;;;27.95;5.78;;;;;;;5.73;87.58;102470.56;4990853;28;20030;-70
2021/03/28 03:10:52;;;;;;;27.50;6.25;;;;;;;5.67;87.92;102461.16;4988431;28;20488;-70
2021/03/28 03:13:33;;;;;;;23.80;6.07;;;;;;;5.67;88.36;102462.94;4985871;28;20030;-70
2021/03/28 03:16:19;;;;;;;17.00;5.63;;;;;;;5.67;87.90;102455.00;4985890;28;20026;-70
2021/03/28 03:19:06;;;;;;;25.15;5.82;;;;;;;5.41;87.37;102409.56;4988090;28;20052;-70
2021/03/28 03:22:09;;;;;;;21.80;5.72;;;;;;;5.65;87.44;102451.56;4989336;28;20444;-70
2021/03/28 03:24:56;;;;;;;15.45;5.63;;;;;;;5.64;88.27;102456.03;4988703;28;20030;-70
2021/03/28 03:27:40;;;;;;;15.05;4.90;;;;;;;5.61;87.71;102455.34;4982636;28;20062;-70
2021/03/28 03:30:11;;;;;;;21.63;5.78;;;;;;;5.62;87.74;102457.06;4989731;28;20026;-70
2021/03/28 03:33:03;;;;;;;22.77;5.97;;;;;;;5.65;87.98;102455.09;4988464;28;20057;-70
2021/03/28 03:35:56;;;;;;;22.45;6.00;;;;;;;5.69;87.93;102458.44;4980660;28;20038;-70
2021/03/28 03:38:58;;;;;;;17.80;5.35;;;;;;;5.70;88.27;102456.66;4986388;28;20027;-70
2021/03/28 03:42:06;;;;;;;23.08;5.45;;;;;;;5.76;88.14;102453.66;4986859;28;20069;-70
2021/03/28 03:45:09;;;;;;;18.98;5.10;;;;;;;5.77;88.45;102458.84;4988760;28;20053;-71
2021/03/28 03:47:50;;;;;;;17.17;5.00;;;;;;;5.49;88.25;102395.94;4988297;28;20050;-71
2021/03/28 03:50:22;;;;;;;15.88;5.00;;;;;;;5.85;87.47;102447.84;4987055;28;20038;-69
2021/03/28 03:52:47;;;;;;;19.77;4.90;;;;;;;5.85;88.17;102450.50;4991658;28;20069;-68
2021/03/28 03:55:24;;;;;;;23.90;5.05;;;;;;;5.86;88.09;102452.22;4988050;28;20085;-68
2021/03/28 03:57:54;;;;;;;19.93;4.53;;;;;;;5.87;88.00;102453.09;4990007;28;20030;-69
2021/03/28 04:00:27;;;;;;;17.30;4.20;;;;;;;5.86;88.18;102452.22;4986639;28;20045;-69
2021/03/28 04:02:53;;;;;;;19.10;4.75;;;;;;;5.86;88.77;102459.31;4989120;28;20022;-70
2021/03/28 04:05:29;;;;;;;18.38;4.30;;;;;;;5.85;88.58;102450.50;4985127;28;20184;-70
2021/03/28 04:08:12;;;;;;;16.65;4.70;;;;;;;5.88;87.97;102455.66;4988679;28;20060;-70
2021/03/28 04:10:43;;;;;;;18.67;4.90;;;;;;;5.83;88.49;102461.19;4991630;28;20053;-70
2021/03/28 04:13:34;;;;;;;22.25;4.65;;;;;;;5.82;88.05;102459.47;4988844;28;20076;-69
2021/03/28 04:16:32;;;;;;;19.20;5.20;;;;;;;5.79;88.30;102464.94;4983983;28;20045;-69
2021/03/28 04:19:16;;;;;;;;;;;;;;;5.75;88.89;102458.13;4983324;28;20057;-70
2021/03/28 04:21:48;;;;;;;24.15;5.53;;;;;;;5.72;88.81;102455.63;4981201;28;19960;-70
2021/03/28 04:24:33;;;;;;;18.20;4.60;;;;;;;5.13;88.82;102349.28;4992037;28;20035;-70
2021/03/28 04:27:17;;;;;;;18.15;4.43;;;;;;;5.77;88.63;102450.91;4978438;28;20351;-70
2021/03/28 04:29:45;;;;;;;19.75;4.85;;;;;;;5.77;89.07;102452.72;4982732;28;20493;-69
2021/03/28 04:32:40;;;;;;;21.83;5.13;;;;;;;5.68;88.62;102443.47;4988761;28;20042;-69
2021/03/28 04:35:20;;;;;;;19.50;5.03;;;;;;;5.71;89.43;102442.44;4989867;28;20018;-71
2021/03/28 04:37:57;;;;;;;21.40;5.22;;;;;;;5.55;88.56;102411.50;4982001;28;20096;-69
2021/03/28 04:40:30;;;;;;;13.70;4.13;;;;;;;5.75;88.87;102438.69;4991513;28;20049;-68
2021/03/28 04:43:14;;;;;;;18.55;4.53;;;;;;;5.78;89.17;102449.13;4987139;28;20026;-69
2021/03/28 04:46:12;;;;;;;16.13;4.25;;;;;;;5.83;89.30;102453.25;4985799;28;20026;-68
2021/03/28 04:49:08;;;;;;;18.85;4.75;;;;;;;5.87;88.84;102453.09;4991719;28;20053;-69
2021/03/28 04:52:25;;;;;;;20.38;4.60;;;;;;;5.93;88.54;102456.25;4980934;28;20034;-69
2021/03/28 04:55:38;;;;;;;23.52;4.25;;;;;;;6.00;88.22;102455.94;4974579;28;21055;-68
2021/03/28 04:58:29;;;;;;;16.95;3.72;;;;;;;6.07;88.17;102457.34;4989782;28;20042;-68
2021/03/28 05:01:28;;;;;;;15.65;4.22;;;;;;;6.13;87.53;102452.56;4982189;28;20892;-68
2021/03/28 05:04:34;;;;;;;17.80;4.38;;;;;;;6.18;87.72;102441.69;4987004;28;20029;-69
2021/03/28 05:07:18;;;;;;;18.30;3.72;;;;;;;6.22;87.28;102440.59;4990756;28;20425;-69
2021/03/28 05:10:00;;;;;;;16.20;4.00;;;;;;;5.80;87.13;102365.13;4979674;28;20037;-69
2021/03/28 05:12:28;;;;;;;20.33;4.13;;;;;;;6.27;87.26;102429.72;4988296;28;20497;-69
2021/03/28 05:15:22;;;;;;;15.88;3.17;;;;;;;6.33;87.15;102439.13;4988771;28;20044;-69
2021/03/28 05:18:22;;;;;;;16.75;3.95;;;;;;;6.32;86.91;102438.25;4987143;28;20026;-70
2021/03/28 05:21:06;;;;;;;20.42;4.40;;;;;;;6.34;87.24;102444.34;4987780;28;20485;-69
2021/03/28 05:23:40;;;;;;;16.23;3.78;;;;;;;6.37;86.86;102438.88;4978526;28;20038;-69
2021/03/28 05:26:25;;;;;;;12.27;3.90;;;;;;;6.37;86.88;102445.97;4979690;28;20040;-69
2021/03/28 05:29:21;;;;;;;15.90;3.60;;;;;;;6.41;86.64;102428.94;4982561;28;20101;-69
2021/03/28 05:32:38;;;;;;;15.65;4.28;;;;;;;6.42;86.89;102420.91;4981661;28;20402;-69
2021/03/28 05:35:25;;;;;;;12.38;3.72;;;;;;;6.43;86.34;102427.06;4968446;28;20033;-69
2021/03/28 05:38:28;;;;;;;17.92;3.95;;;;;;;6.50;86.57;102416.94;4984161;28;20049;-69
2021/03/28 05:41:19;;;;;;;13.93;3.58;;;;;;;6.53;86.35;102422.94;4980456;28;20565;-69
2021/03/28 05:44:22;;;;;;;15.82;3.75;;;;;;;6.56;85.61;102419.25;4992538;28;20038;-69
2021/03/28 05:47:13;;;;;;;13.38;3.63;;;;;;;6.58;85.87;102425.34;4982856;28;20037;-69
2021/03/28 05:50:03;;;;;;;19.52;4.82;;;;;;;6.63;85.41;102419.75;4989187;28;20030;-69
2021/03/28 05:52:38;;;;;;;14.43;4.32;;;;;;;6.65;85.40;102424.03;4983819;28;20034;-69
2021/03/28 05:55:25;;;;;;;15.70;3.83;;;;;;;6.67;85.83;102422.16;4983832;28;20081;-69
2021/03/28 05:58:07;;;;;;;16.97;4.00;;;;;;;6.74;85.01;102427.94;4990788;28;20041;-70
2021/03/28 06:00:57;;;;;;;16.63;3.45;;;;;;;6.79;85.26;102422.38;4983938;28;20461;-70
2021/03/28 06:04:00;;;;;;;16.45;3.90;;;;;;;6.86;84.39;102416.63;4988299;28;20033;-70
2021/03/28 06:06:53;;;;;;;13.98;4.22;;;;;;;6.87;84.75;102426.28;4984148;28;20042;-70
2021/03/28 06:09:56;;;;;;;15.85;4.53;;;;;;;6.94;84.48;102418.81;4987923;28;21885;-69
2021/03/28 06:12:46;;;;;;;14.40;4.28;;;;;;;6.98;84.17;102430.13;4983850;28;20064;-70
2021/03/28 06:15:46;;;;;;;17.77;4.00;;;;;;;7.01;83.55;102425.47;4981797;28;20034;-69
2021/03/28 06:18:11;;;;;;;17.58;3.83;;;;;;;7.11;83.69;102419.63;4986467;28;20129;-69
2021/03/28 06:21:23;;;;;;;18.67;3.80;;;;;;;7.20;82.99;102416.41;4982837;28;20105;-69
2021/03/28 06:23:54;;;;;;;11.05;3.55;;;;;;;7.28;82.49;102424.75;4967580;28;20085;-69
2021/03/28 06:26:40;;;;;;;20.75;4.40;;;;;;;7.42;82.54;102425.72;4980152;28;20489;-69
2021/03/28 06:29:39;;;;;;;12.05;3.67;;;;;;;7.53;81.69;102425.94;4981921;28;20037;-69
2021/03/28 06:32:26;;;;;;;13.98;4.00;;;;;;;7.68;80.98;102433.91;4988542;28;20117;-70
2021/03/28 06:35:01;;;;;;;17.02;3.78;;;;;;;7.77;80.43;102431.53;4982480;28;20211;-69
2021/03/28 06:37:41;;;;;;;13.32;4.30;;;;;;;7.93;79.72;102436.75;4968364;28;20390;-69
2021/03/28 06:40:26;;;;;;;10.98;3.92;;;;;;;8.17;78.71;102441.47;4972871;28;20034;-69
2021/03/28 06:42:57;;;;;;;12.55;4.00;;;;;;;8.58;78.05;102437.94;4978169;28;20390;-69
2021/03/28 06:45:41;;;;;;;13.77;4.03;;;;;;;8.91;77.29;102432.28;4979450;28;20022;-69
2021/03/28 06:48:31;;;;;;;14.10;3.70;;;;;;;9.60;74.67;102438.22;4976094;28;20489;-69
2021/03/28 06:51:34;;;;;;;11.55;3.95;;;;;;;10.36;71.08;102443.50;4977711;28;20466;-69
2021/03/28 06:54:02;;;;;;;13.50;3.33;;;;;;;11.37;67.56;102441.34;4977827;28;20040;-69
2021/03/28 06:56:49;;;;;;;13.50;4.22;;;;;;;12.06;64.92;102437.72;4979987;28;20433;-70
2021/03/28 06:59:32;;;;;;;10.60;3.42;;;;;;;12.84;61.76;102429.53;4980394;28;20042;-70
2021/03/28 07:02:35;;;;;;;19.90;4.43;;;;;;;13.28;59.92;102437.47;4983870;28;20126;-69
2021/03/28 07:05:23;;;;;;;13.52;3.88;;;;;;;13.00;59.99;102434.47;4978168;28;20041;-70
2021/03/28 07:08:07;;;;;;;9.88;3.28;;;;;;;12.85;60.65;102439.28;4984836;28;20023;-69
2021/03/28 07:10:53;;;;;;;12.20;3.97;;;;;;;13.14;59.96;102440.50;4980258;28;20053;-72
2021/03/28 07:13:31;;;;;;;16.88;3.80;;;;;;;12.96;59.89;102449.09;4982322;28;20068;-73
2021/03/28 07:16:21;;;;;;;10.80;3.53;;;;;;;13.23;59.04;102445.06;4975719;28;20045;-72
2021/03/28 07:18:57;;;;;;;8.57;3.53;;;;;;;13.30;58.41;102446.22;4977419;28;20223;-72
2021/03/28 07:21:47;;;;;;;11.23;3.42;;;;;;;12.97;59.53;102445.44;4973341;28;20042;-69
2021/03/28 07:24:37;;;;;;;8.50;3.53;;;;;;;12.85;60.27;102449.16;4981669;28;20034;-69
2021/03/28 07:27:39;;;;;;;9.73;4.00;;;;;;;11.91;63.00;102445.09;4985033;28;20591;-70
2021/03/28 07:30:41;;;;;;;15.23;4.15;;;;;;;12.01;63.12;102447.09;4985156;28;20035;-72
2021/03/28 07:33:44;;;;;;;15.07;4.55;;;;;;;12.07;63.01;102450.13;4984743;28;20034;-72
2021/03/28 07:36:21;;;;;;;14.63;4.22;;;;;;;11.85;63.19;102447.41;4986799;28;20042;-72
2021/03/28 07:39:18;;;;;;;11.38;3.95;;;;;;;11.69;63.84;102453.97;4983713;28;20600;-72
2021/03/28 07:42:02;;;;;;;14.90;4.45;;;;;;;11.28;65.52;102448.25;4982057;28;20585;-71
2021/03/28 07:44:58;;;;;;;10.27;3.92;;;;;;;11.08;65.95;102451.56;4981874;28;20402;-70
2021/03/28 07:47:54;;;;;;;16.33;4.18;;;;;;;10.82;67.10;102444.59;4976934;28;20030;-70
2021/03/28 07:51:22;;;;;;;11.68;3.72;;;;;;;10.81;67.35;102448.22;4977181;28;20498;-69
2021/03/28 07:54:18;;;;;;;14.23;4.03;;;;;;;11.19;67.79;102443.63;4888183;29;20071;-70
2021/03/28 07:57:24;;;;;;;12.77;3.88;;;;;;;11.61;65.52;102443.06;4969355;28;20053;-69
2021/03/28 08:00:17;;;;;;;11.50;3.60;;;;;;;11.99;64.26;102439.19;4977510;28;20026;-70
2021/03/28 08:03:33;;;;;;;12.63;3.85;;;;;;;11.74;63.77;102435.75;4974815;28;20034;-69
2021/03/28 08:06:22;;;;;;;13.05;3.70;;;;;;;11.48;65.73;102443.16;4951703;28;20052;-72
2021/03/28 08:09:22;;;;;;;13.75;3.45;;;;;;;11.33;66.17;102435.34;4950306;28;20093;-69
2021/03/28 08:12:13;;;;;;;16.65;7.50;;;;;;;11.27;65.75;102433.16;4970165;28;20153;-70
2021/03/28 08:15:00;;;;;;;13.15;3.75;;;;;;;11.12;66.69;102448.56;4973052;28;20358;-69
2021/03/28 08:17:41;;;;;;;14.10;4.13;;;;;;;10.81;67.44;102437.53;4974007;28;20040;-70
2021/03/28 08:20:36;;;;;;;15.23;4.13;;;;;;;10.83;67.03;102434.75;4975832;28;20034;-70
2021/03/28 08:23:43;;;;;;;14.68;4.13;;;;;;;10.67;68.80;102446.56;4973765;28;20456;-70
2021/03/28 08:26:38;;;;;;;12.73;4.07;;;;;;;10.69;68.27;102441.13;4970424;28;20035;-70
2021/03/28 08:29:37;;;;;;;14.43;3.97;;;;;;;10.68;68.07;102440.25;4973595;28;20042;-70
2021/03/28 08:32:12;;;;;;;13.88;4.03;;;;;;;10.79;67.40;102431.47;4967651;28;20513;-69
2021/03/28 08:35:02;;;;;;;14.88;3.70;;;;;;;10.56;67.24;102364.63;4971573;28;20029;-70
2021/03/28 08:37:39;;;;;;;18.45;4.05;;;;;;;11.47;65.75;102433.44;4973569;28;20038;-70
2021/03/28 08:40:41;;;;;;;13.57;3.65;;;;;;;11.93;63.84;102439.66;4972029;28;20030;-70
2021/03/28 08:43:58;;;;;;;14.57;3.70;;;;;;;12.75;60.97;102430.31;4975866;28;20034;-70
2021/03/28 08:46:58;;;;;;;10.93;3.63;;;;;;;13.20;58.76;102431.91;4962903;28;20049;-70
2021/03/28 08:49:56;;;;;;;12.60;3.53;;;;;;;13.83;56.90;102427.44;4972425;28;20042;-70
2021/03/28 08:52:52;;;;;;;11.00;3.20;;;;;;;14.08;55.15;102416.22;4967570;28;20042;-71
2021/03/28 08:55:55;;;;;;;13.90;3.33;;;;;;;14.25;54.59;102438.00;4968601;28;20034;-73
2021/03/28 08:58:29;;;;;;;10.55;3.05;;;;;;;13.71;55.19;102432.06;4966029;28;20139;-73
2021/03/28 09:01:22;;;;;;;13.43;3.00;;;;;;;13.37;55.24;102440.34;4972253;28;20063;-72
2021/03/28 09:04:03;;;;;;;12.00;3.28;;;;;;;13.07;55.91;102434.81;4973035;28;20219;-71
2021/03/28 09:06:49;;;;;;;12.93;3.47;;;;;;;13.22;56.20;102440.69;4963825;28;20034;-72
2021/03/28 09:09:21;;;;;;;11.27;3.25;;;;;;;12.91;57.36;102442.44;4973166;28;20420;-71
2021/03/28 09:12:17;;;;;;;13.52;3.20;;;;;;;12.82;57.73;102438.69;4973236;28;20049;-75
2021/03/28 09:15:02;;;;;;;17.02;3.45;;;;;;;12.75;58.26;102402.72;4966892;28;20080;-73
2021/03/28 09:17:59;;;;;;;10.88;3.50;;;;;;;13.04;58.15;102439.56;4970614;28;20423;-73
2021/03/28 09:21:08;;;;;;;13.93;3.58;;;;;;;13.02;57.72;102437.88;4975071;28;20401;-73
2021/03/28 09:24:02;;;;;;;13.73;3.53;;;;;;;12.96;58.16;102441.06;4961985;28;20508;-73
2021/03/28 09:26:51;;;;;;;13.60;3.40;;;;;;;12.95;57.51;102451.94;4971627;28;20068;-71
2021/03/28 09:29:34;;;;;;;15.45;4.00;;;;;;;12.84;58.07;102455.50;4971235;28;20077;-71
2021/03/28 09:32:06;;;;;;;12.63;3.45;;;;;;;12.81;58.17;102456.63;4974856;28;20377;-72
2021/03/28 09:34:52;;;;;;;11.25;3.08;;;;;;;12.93;59.26;102472.63;4975518;28;20026;-71
2021/03/28 09:37:25;;;;;;;12.30;3.20;;;;;;;12.94;57.81;102453.75;4973982;28;20034;-71
2021/03/28 09:40:10;;;;;;;11.95;3.65;;;;;;;12.96;58.28;102459.81;4977034;28;20034;-71
2021/03/28 09:43:01;;;;;;;12.82;3.00;;;;;;;12.80;58.38;102432.63;4979536;28;20081;-72
2021/03/28 09:45:30;;;;;;;9.35;3.53;;;;;;;13.01;57.93;102462.97;4967337;28;20026;-70
2021/03/28 09:48:26;;;;;;;12.80;3.58;;;;;;;12.89;58.00;102458.66;4973641;28;20035;-70
2021/03/28 09:51:06;;;;;;;13.48;3.50;;;;;;;12.92;57.86;102458.38;4974067;28;20373;-69
2021/03/28 09:53:43;;;;;;;16.00;4.03;;;;;;;12.77;57.52;102471.25;4975442;28;20401;-69
2021/03/28 09:56:40;;;;;;;11.38;3.28;;;;;;;12.56;59.03;102477.38;4966533;28;20057;-69
2021/03/28 09:59:24;;;;;;;17.05;2.95;;;;;;;12.22;57.99;102461.41;4975168;28;20026;-69
2021/03/28 10:01:52;;;;;;;10.73;3.03;;;;;;;12.21;59.02;102472.25;4974478;28;21056;-69
2021/03/28 10:04:25;;;;;;;;;;;;;;;12.06;59.11;102464.47;4972082;28;20028;-69
2021/03/28 10:07:05;;;;;;;13.93;3.42;;;;;;;11.95;58.53;102453.72;4976000;28;19921;-69
2021/03/28 10:09:52;;;;;;;14.18;3.22;;;;;;;11.99;59.09;102473.13;4978217;28;20041;-71
2021/03/28 10:12:35;;;;;;;13.40;3.20;;;;;;;11.91;59.32;102457.66;4976023;28;20054;-69
2021/03/28 10:15:17;;;;;;;13.02;2.92;;;;;;;11.67;59.60;102465.78;4975860;28;20026;-69
2021/03/28 10:18:22;;;;;;;14.35;3.17;;;;;;;11.70;59.56;102470.91;4977146;28;20145;-69
2021/03/28 10:20:50;;;;;;;15.73;3.40;;;;;;;11.55;62.02;102487.16;4971859;28;20046;-70
2021/03/28 10:23:15;;;;;;;12.85;3.47;;;;;;;11.49;62.64;102472.44;4973829;28;20105;-70
2021/03/28 10:25:56;;;;;;;12.48;3.33;;;;;;;11.53;63.20;102467.72;4979470;28;20034;-70
2021/03/28 10:28:55;;;;;;;17.38;2.85;;;;;;;11.46;63.96;102474.53;4973650;28;20041;-71
2021/03/28 10:31:38;;;;;;;15.82;2.78;;;;;;;11.47;64.76;102487.75;4979744;28;20023;-70
2021/03/28 10:34:24;;;;;;;14.07;3.20;;;;;;;11.44;66.07;102479.13;4982359;28;20018;-70
2021/03/28 10:37:05;;;;;;;13.15;3.30;;;;;;;11.42;66.70;102489.09;4981073;28;20072;-70
2021/03/28 10:39:44;;;;;;;16.65;2.90;;;;;;;11.40;65.71;102488.34;4982522;28;20484;-70
2021/03/28 10:42:22;;;;;;;11.95;3.20;;;;;;;11.38;64.11;102482.25;4980293;28;20126;-71
2021/03/28 10:45:14;;;;;;;14.00;3.20;;;;;;;11.36;63.70;102477.06;4980873;28;20157;-68
2021/03/28 10:47:48;;;;;;;14.82;3.33;;;;;;;11.45;63.71;102487.03;4982758;28;20048;-68
2021/03/28 10:50:26;;;;;;;14.38;2.83;;;;;;;11.38;62.36;102482.25;4980059;28;20052;-68
2021/03/28 10:53:35;;;;;;;13.13;2.85;;;;;;;11.34;62.66;102484.31;4984899;28;20163;-68
2021/03/28 10:56:49;;;;;;;9.18;2.78;;;;;;;11.33;63.21;102483.47;4960647;28;20541;-68
2021/03/28 10:59:42;;;;;;;10.85;3.15;;;;;;;11.32;62.38;102487.13;4961846;28;20050;-69
2021/03/28 11:02:22;;;;;;;14.68;3.10;;;;;;;11.35;62.52;102480.69;4987241;28;20049;-68
2021/03/28 11:05:09;;;;;;;12.63;3.22;;;;;;;11.35;62.48;102470.00;4986778;28;20023;-69
2021/03/28 11:08:02;;;;;;;12.65;3.00;;;;;;;11.38;62.78;102472.44;4984590;28;20041;-68
2021/03/28 11:10:47;;;;;;;8.93;2.70;;;;;;;11.40;62.23;102469.63;4977163;28;20307;-68
2021/03/28 11:13:46;;;;;;;14.88;2.80;;;;;;;11.43;62.47;102467.56;4984621;28;20084;-68
2021/03/28 11:16:15;;;;;;;12.18;2.97;;;;;;;11.45;63.25;102479.00;4976619;28;20481;-68
2021/03/28 11:19:31;;;;;;;14.63;3.33;;;;;;;11.47;62.06;102486.88;4985790;28;20064;-68
2021/03/28 11:22:06;;;;;;;46.72;3.95;;;;;;;11.57;62.40;102487.03;4982414;28;20412;-68
2021/03/28 11:25:16;;;;;;;43.20;4.90;;;;;;;11.62;61.36;102469.66;4987390;28;20130;-68
2021/03/28 11:27:50;;;;;;;17.60;3.00;;;;;;;11.66;61.95;102480.13;4989615;28;20046;-69
2021/03/28 11:30:34;;;;;;;17.73;2.63;;;;;;;11.68;61.71;102487.03;4981167;28;20066;-69
2021/03/28 11:33:42;;;;;;;18.63;3.50;;;;;;;11.67;61.16;102489.84;4982198;28;20038;-69
2021/03/28 11:36:19;;;;;;;10.40;2.60;;;;;;;11.66;60.58;102485.47;4960509;28;20860;-68
2021/03/28 11:39:23;;;;;;;15.15;2.85;;;;;;;11.64;61.54;102481.09;4955269;28;20049;-68
2021/03/28 11:42:08;;;;;;;15.88;3.35;;;;;;;11.85;61.26;102490.22;4972815;28;20438;-68
2021/03/28 11:45:03;;;;;;;16.75;3.33;;;;;;;11.75;61.29;102472.22;4979752;28;20085;-68
2021/03/28 11:47:56;;;;;;;13.55;2.95;;;;;;;11.86;62.08;102489.25;4977436;28;20069;-68
2021/03/28 11:50:32;;;;;;;14.00;2.92;;;;;;;11.75;61.98;102468.69;4978980;28;20046;-67
2021/03/28 11:53:11;;;;;;;17.65;3.58;;;;;;;11.94;61.65;102490.34;4980198;28;20252;-67
2021/03/28 11:55:44;;;;;;;17.25;3.40;;;;;;;11.92;61.52;102500.31;4974204;28;20104;-70
2021/03/28 11:58:12;;;;;;;15.43;3.10;;;;;;;11.94;61.09;102479.66;4978783;28;20100;-70
2021/03/28 12:00:42;;;;;;;17.60;3.50;;;;;;;11.67;62.11;102476.47;4981785;28;20030;-70
2021/03/28 12:03:20;;;;;;;12.00;2.78;;;;;;;11.71;62.07;102485.97;4976711;28;20537;-70
2021/03/28 12:05:59;;;;;;;16.13;3.58;;;;;;;11.55;61.94;102456.88;4977758;28;20049;-70
2021/03/28 12:08:28;;;;;;;12.50;2.92;;;;;;;11.79;62.05;102488.88;4980169;28;20038;-67
2021/03/28 12:10:57;;;;;;;14.50;3.30;;;;;;;11.57;62.19;102461.16;4981845;28;20511;-67
2021/03/28 12:13:28;;;;;;;14.10;2.92;;;;;;;11.77;61.84;102478.31;4983616;28;20104;-67
2021/03/28 12:15:57;;;;;;;14.25;2.72;;;;;;;11.76;61.90;102481.97;4974801;28;20042;-67
2021/03/28 12:18:23;;;;;;;12.70;3.00;;;;;;;11.74;61.69;102489.25;4977194;28;20048;-67
2021/03/28 12:21:02;;;;;;;12.27;2.92;;;;;;;11.78;61.68;102492.53;4977216;28;20038;-67
2021/03/28 12:23:27;;;;;;;16.25;3.30;;;;;;;11.76;61.50;102511.38;4978948;28;20034;-68
2021/03/28 12:26:13;;;;;;;16.83;3.22;;;;;;;11.87;61.36;102499.84;4975640;28;20072;-67
2021/03/28 12:28:45;;;;;;;14.65;2.63;;;;;;;11.86;61.71;102502.63;4979929;28;20034;-67
2021/03/28 12:31:32;;;;;;;13.55;2.58;;;;;;;11.90;62.41;102501.41;4979468;28;20034;-67
2021/03/28 12:34:07;;;;;;;17.88;2.88;;;;;;;11.84;62.62;102502.75;4977459;28;20038;-67
2021/03/28 12:36:57;;;;;;;12.05;3.15;;;;;;;12.00;61.97;102515.78;4975771;28;20057;-67
2021/03/28 12:39:34;;;;;;;17.58;3.65;;;;;;;11.98;62.37;102523.09;4980742;28;20540;-67
2021/03/28 12:42:24;;;;;;;17.60;2.77;;;;;;;11.93;62.09;102512.72;4980642;28;20022;-67
2021/03/28 12:44:51;;;;;;;13.00;3.22;;;;;;;11.89;62.54;102519.28;4975783;28;20844;-67
2021/03/28 12:47:24;;;;;;;21.50;3.78;;;;;;;11.93;62.36;102518.06;4978260;28;20030;-67